KP53

Munising Lakeshore Observation Airport

Michigan, USA
METAR KP53 201256Z AUTO 31007KT 04/M01 A2972 RMK AO1 SLP072 T00391006
Observed Flight Rules
Jan-20 @ 12:56 UTC (18 minutes ago)
Wind
310° at 7 knots
Temperatures Readings
Current 4°C / 39°F
Dewpoint -1°C / 30°F
Humidity 70%
Altimeter 29.72" Hg
Pressure 1007.2 hPa
Elevation 187
METAR KP53 201256Z AUTO 31007KT 04/M01 A2972 RMK AO1 SLP072 T00391006
Observed Flight Rules
Jan-20 @ 12:56 UTC
(18 minutes ago)
Wind
310° at 7 knots
Temperature Dewpoint
4°C / 39°F -1°C / 30°F
Humidity Altimeter Pressure
70% 29.72" Hg 1007.2 hPa